createdAt,value
2023-03-06T00:01:08.319Z,99025.11
2023-03-06T00:06:11.278Z,99026.81
2023-03-06T00:11:15.674Z,99018.42
2023-03-06T00:16:18.598Z,99018.06
2023-03-06T00:21:21.586Z,99015.84
2023-03-06T00:26:24.583Z,99015.66
2023-03-06T00:31:27.508Z,99016.86
2023-03-06T00:36:30.390Z,99017.02
2023-03-06T00:41:33.287Z,99011.52
2023-03-06T00:46:36.289Z,99016.14
2023-03-06T00:51:39.195Z,99006.90
2023-03-06T00:56:42.097Z,99005.02
2023-03-06T01:01:45.367Z,99006.73
2023-03-06T01:06:48.987Z,99003.49
2023-03-06T01:11:51.826Z,98997.17
2023-03-06T01:16:54.729Z,98996.48
2023-03-06T01:21:57.736Z,98998.36
2023-03-06T01:27:00.522Z,98993.91
2023-03-06T01:32:03.645Z,98993.58
2023-03-06T01:37:06.764Z,98991.85
2023-03-06T01:42:09.762Z,98991.01
2023-03-06T01:47:12.668Z,98988.96
2023-03-06T01:52:19.983Z,98986.74
2023-03-06T01:57:30.662Z,98984.34
2023-03-06T02:02:33.796Z,98983.30
2023-03-06T02:07:38.615Z,98979.70
2023-03-06T02:12:43.839Z,98975.77
2023-03-06T02:17:48.562Z,98976.11
2023-03-06T02:23:06.377Z,98974.75
2023-03-06T02:28:15.632Z,98973.02
2023-03-06T02:33:22.376Z,98978.15
2023-03-06T02:38:48.066Z,98975.77
2023-03-06T02:43:52.155Z,98973.02
2023-03-06T02:48:55.684Z,98971.29
2023-03-06T02:53:58.508Z,98968.55
2023-03-06T02:59:01.410Z,98965.46
2023-03-06T03:04:05.377Z,98963.40
2023-03-06T03:09:08.249Z,98962.54
2023-03-06T03:14:11.145Z,98960.84
2023-03-06T03:19:14.567Z,98959.30
2023-03-06T03:24:17.508Z,98956.57
2023-03-06T03:29:20.784Z,98954.33
2023-03-06T03:34:23.786Z,98952.80
2023-03-06T03:39:26.689Z,98951.77
2023-03-06T03:44:29.594Z,98951.94
2023-03-06T03:49:32.499Z,98956.55
2023-03-06T03:54:35.509Z,98947.32
2023-03-06T03:59:38.413Z,98951.43
2023-03-06T04:04:41.347Z,98942.04
2023-03-06T04:09:44.210Z,98945.27
2023-03-06T04:14:47.038Z,98947.14
2023-03-06T04:19:49.916Z,98946.09
2023-03-06T04:24:52.821Z,98938.90
2023-03-06T04:29:56.568Z,98940.09
2023-03-06T04:34:59.448Z,98934.63
2023-03-06T04:40:02.351Z,98932.39
2023-03-06T04:45:05.703Z,98931.02
2023-03-06T04:50:09.742Z,98931.04
2023-03-06T04:55:14.914Z,98926.42
2023-03-06T05:00:30.466Z,98924.88
2023-03-06T05:05:33.350Z,98923.50
2023-03-06T05:10:36.177Z,98928.13
2023-03-06T05:15:42.256Z,98931.86
2023-03-06T05:20:45.142Z,98935.80
2023-03-06T05:25:48.035Z,98934.95
2023-03-06T05:30:50.938Z,98933.39
2023-03-06T05:35:53.894Z,98933.54
2023-03-06T05:40:56.762Z,98932.73
2023-03-06T05:46:07.230Z,98936.82
2023-03-06T05:51:11.260Z,98937.69
2023-03-06T05:56:14.950Z,98937.71
2023-03-06T06:01:20.351Z,98932.46
2023-03-06T06:06:23.258Z,98937.75
2023-03-06T06:11:26.152Z,98941.52
2023-03-06T06:16:29.053Z,98942.59
2023-03-06T06:21:31.965Z,98947.73
2023-03-06T06:26:35.289Z,98951.68
2023-03-06T06:31:39.707Z,98949.63
2023-03-06T06:36:42.579Z,98949.46
2023-03-06T06:42:05.521Z,98950.47
2023-03-06T06:47:25.060Z,98953.19
2023-03-06T06:52:28.408Z,98954.55
2023-03-06T06:57:31.314Z,98949.55
2023-03-06T07:02:34.587Z,98955.16
2023-03-06T07:07:42.626Z,98957.50
2023-03-06T07:12:45.849Z,98957.60
2023-03-06T07:17:50.248Z,98957.89
2023-03-06T07:22:53.351Z,98956.92
2023-03-06T07:27:56.184Z,98960.27
2023-03-06T07:33:00.146Z,98958.46
2023-03-06T07:38:03.163Z,98963.66
2023-03-06T07:43:18.758Z,98960.63
2023-03-06T07:48:24.580Z,98967.02
2023-03-06T07:53:28.231Z,98969.31
2023-03-06T07:58:31.118Z,98972.50
2023-03-06T08:03:35.092Z,98976.89
2023-03-06T08:08:39.991Z,98969.56
2023-03-06T08:13:43.238Z,98973.74
2023-03-06T08:18:46.680Z,98977.48
2023-03-06T08:23:50.067Z,98978.49
2023-03-06T08:28:54.596Z,98977.65
2023-03-06T08:34:00.109Z,98976.52
2023-03-06T08:39:04.389Z,98977.28
2023-03-06T08:44:07.287Z,98978.77
2023-03-06T08:49:12.959Z,98979.67
2023-03-06T08:54:17.423Z,98981.08
2023-03-06T08:59:21.742Z,98986.98
2023-03-06T09:04:24.949Z,98992.30
2023-03-06T09:09:27.871Z,98988.91
2023-03-06T09:14:31.546Z,98985.30
2023-03-06T09:19:34.604Z,98987.75
2023-03-06T09:24:37.447Z,98985.73
2023-03-06T09:29:43.289Z,98985.31
2023-03-06T09:34:46.322Z,98981.98
2023-03-06T09:39:49.331Z,98984.24
2023-03-06T09:44:59.153Z,98982.39
2023-03-06T09:50:40.152Z,98979.39
2023-03-06T09:55:50.397Z,98977.74
2023-03-06T10:01:24.824Z,98973.98
2023-03-06T10:06:37.622Z,98970.61
2023-03-06T10:12:18.516Z,98964.05
2023-03-06T10:17:23.880Z,98959.15
2023-03-06T10:22:31.736Z,98960.04
2023-03-06T10:27:37.152Z,98963.08
2023-03-06T10:32:48.347Z,98958.84
2023-03-06T10:37:59.930Z,98961.42
2023-03-06T10:43:11.459Z,98957.05
2023-03-06T10:48:20.406Z,98947.20
2023-03-06T10:53:31.338Z,98947.49
2023-03-06T10:58:34.379Z,98941.95
2023-03-06T11:03:37.517Z,98940.77
2023-03-06T11:08:42.857Z,98942.63
2023-03-06T11:13:57.782Z,98940.06
2023-03-06T11:19:04.155Z,98934.59
2023-03-06T11:24:20.166Z,98929.78
2023-03-06T11:29:36.302Z,98928.73
2023-03-06T11:34:52.402Z,98925.86
2023-03-06T11:40:13.107Z,98928.52
2023-03-06T11:45:25.608Z,98929.67
2023-03-06T11:50:43.783Z,98925.52
2023-03-06T11:56:00.039Z,98922.98
2023-03-06T12:01:17.287Z,98923.27
2023-03-06T12:06:35.122Z,98928.48
2023-03-06T12:11:54.346Z,98924.50
2023-03-06T12:17:02.117Z,98921.84
2023-03-06T12:22:16.802Z,98921.51
2023-03-06T12:27:32.851Z,98923.02
2023-03-06T12:32:49.515Z,98920.66
2023-03-06T12:37:58.591Z,98924.35
2023-03-06T12:43:20.474Z,98921.05
2023-03-06T12:48:28.225Z,98922.24
2023-03-06T12:53:33.062Z,98919.17
2023-03-06T12:58:47.141Z,98918.49
2023-03-06T13:04:16.487Z,98915.80
2023-03-06T13:09:28.762Z,98913.56
2023-03-06T13:14:42.401Z,98908.77
2023-03-06T13:20:13.124Z,98905.38
2023-03-06T13:25:19.081Z,98905.42
2023-03-06T13:30:27.296Z,98898.73
2023-03-06T13:35:30.108Z,98899.33
2023-03-06T13:40:35.340Z,98894.39
2023-03-06T13:45:43.871Z,98897.26
2023-03-06T13:50:47.771Z,98891.03
2023-03-06T13:56:27.960Z,98893.10
2023-03-06T14:02:12.357Z,98889.59
2023-03-06T14:07:27.422Z,98889.39
2023-03-06T14:12:38.158Z,98889.20
2023-03-06T14:17:53.304Z,98889.91
2023-03-06T14:23:22.447Z,98885.52
2023-03-06T14:28:29.534Z,98880.31
2023-03-06T14:33:56.655Z,98879.34
2023-03-06T14:39:04.394Z,98875.52
2023-03-06T14:44:17.812Z,98869.65
2023-03-06T14:49:23.372Z,98870.19
2023-03-06T14:54:31.109Z,98868.96
2023-03-06T14:59:47.349Z,98869.91
2023-03-06T15:05:25.121Z,98870.81
2023-03-06T15:10:33.260Z,98867.63
2023-03-06T15:15:36.213Z,98868.92
2023-03-06T15:20:43.702Z,98866.57
2023-03-06T15:25:52.766Z,98866.92
2023-03-06T15:31:10.896Z,98870.56
2023-03-06T15:36:27.676Z,98863.56
2023-03-06T15:41:35.766Z,98864.38
2023-03-06T15:46:38.739Z,98869.70
2023-03-06T15:51:41.567Z,98868.00
2023-03-06T15:56:58.045Z,98860.54
2023-03-06T16:02:11.201Z,98859.39
2023-03-06T16:07:14.619Z,98862.14
2023-03-06T16:12:20.594Z,98864.14
2023-03-06T16:17:23.393Z,98866.27
2023-03-06T16:22:26.426Z,98865.97
2023-03-06T16:27:29.316Z,98865.27
2023-03-06T16:32:32.153Z,98868.35
2023-03-06T16:37:35.106Z,98861.93
2023-03-06T16:42:38.114Z,98861.71
2023-03-06T16:47:41.935Z,98860.70
2023-03-06T16:52:44.739Z,98858.76
2023-03-06T16:57:47.913Z,98858.04
2023-03-06T17:02:51.521Z,98856.64
2023-03-06T17:07:55.353Z,98859.35
2023-03-06T17:12:58.305Z,98860.52
2023-03-06T17:18:01.116Z,98863.23
2023-03-06T17:23:04.003Z,98865.73
2023-03-06T17:28:06.805Z,98867.03
2023-03-06T17:33:09.811Z,98868.89
2023-03-06T17:38:12.690Z,98872.58
2023-03-06T17:43:15.627Z,98864.73
2023-03-06T17:48:18.521Z,98862.72
2023-03-06T17:53:22.346Z,98863.96
2023-03-06T17:58:26.388Z,98863.58
2023-03-06T18:03:29.280Z,98862.66
2023-03-06T18:08:32.445Z,98865.33
2023-03-06T18:13:39.288Z,98866.48
2023-03-06T18:18:42.391Z,98862.71
2023-03-06T18:23:45.295Z,98865.86
2023-03-06T18:28:52.294Z,98864.22
2023-03-06T18:33:57.604Z,98867.56
2023-03-06T18:39:03.793Z,98869.84
2023-03-06T18:44:07.003Z,98878.80
2023-03-06T18:49:11.437Z,98879.00
2023-03-06T18:54:14.394Z,98877.55
2023-03-06T18:59:18.950Z,98868.89
2023-03-06T19:04:22.067Z,98867.11
2023-03-06T19:09:24.947Z,98868.83
2023-03-06T19:14:28.728Z,98871.13
2023-03-06T19:19:31.577Z,98866.45
2023-03-06T19:24:34.595Z,98868.13
2023-03-06T19:29:38.718Z,98867.40
2023-03-06T19:34:41.624Z,98869.59
2023-03-06T19:39:44.526Z,98865.39
2023-03-06T19:44:47.430Z,98864.77
2023-03-06T19:49:50.339Z,98868.46
2023-03-06T19:54:53.346Z,98868.33
2023-03-06T19:59:58.505Z,98865.39
2023-03-06T20:05:01.608Z,98867.10
2023-03-06T20:10:05.176Z,98868.12
2023-03-06T20:15:08.619Z,98867.46
2023-03-06T20:20:12.513Z,98871.27
2023-03-06T20:25:15.589Z,98873.17
2023-03-06T20:30:18.466Z,98869.73
2023-03-06T20:35:21.697Z,98869.02
2023-03-06T20:40:24.679Z,98869.89
2023-03-06T20:45:27.999Z,98868.23
2023-03-06T20:50:30.904Z,98862.61
2023-03-06T20:55:37.647Z,98868.29
2023-03-06T21:00:41.492Z,98869.31
2023-03-06T21:05:47.781Z,98865.19
2023-03-06T21:10:51.015Z,98865.56
2023-03-06T21:15:53.963Z,98867.65
2023-03-06T21:20:56.823Z,98865.43
2023-03-06T21:25:59.842Z,98862.51
2023-03-06T21:31:02.778Z,98862.85
2023-03-06T21:36:06.182Z,98866.30
2023-03-06T21:41:16.942Z,98865.98
2023-03-06T21:46:19.876Z,98867.02
2023-03-06T21:51:23.817Z,98868.92
2023-03-06T21:56:28.611Z,98873.58
2023-03-06T22:01:31.551Z,98873.60
2023-03-06T22:06:34.535Z,98869.33
2023-03-06T22:11:37.537Z,98870.37
2023-03-06T22:16:40.907Z,98872.41
2023-03-06T22:21:43.756Z,98875.34
2023-03-06T22:26:46.656Z,98867.64
2023-03-06T22:31:49.941Z,98869.70
2023-03-06T22:36:53.279Z,98866.29
2023-03-06T22:41:56.771Z,98861.67
2023-03-06T22:46:59.695Z,98860.31
2023-03-06T22:52:02.600Z,98861.69
2023-03-06T22:57:05.507Z,98864.77
2023-03-06T23:02:08.415Z,98863.75
2023-03-06T23:07:11.316Z,98860.67
2023-03-06T23:12:14.319Z,98858.28
2023-03-06T23:17:17.119Z,98859.83
2023-03-06T23:22:20.028Z,98858.47
2023-03-06T23:27:22.944Z,98858.12
2023-03-06T23:32:25.906Z,98856.58
2023-03-06T23:37:28.952Z,98852.48
2023-03-06T23:42:32.666Z,98855.55
2023-03-06T23:47:35.567Z,98854.70
2023-03-06T23:52:38.999Z,98858.63
2023-03-06T23:57:41.788Z,98856.05
